Time;durP1;ratioP1;P1;durP2;ratioP2;P2;SDS_P1;SDS_P2;PMS_P1;PMS_P2;Temp;Humidity;BMP_temperature;BMP_pressure;BME280_temperature;BME280_humidity;BME280_pressure;Samples;Min_cycle;Max_cycle;Signal;HPM_P1;HPM_P2
2024/02/29 00:02:11;;;;;;;25.60;18.08;;;0.70;1.00;;;;;;5095672;28;20256;-73
2024/02/29 00:04:39;;;;;;;25.65;17.55;;;0.70;1.00;;;;;;5105064;27;20822;-72
2024/02/29 00:07:06;;;;;;;26.13;19.05;;;0.70;1.00;;;;;;5096115;28;20357;-76
2024/02/29 00:09:35;;;;;;;29.45;17.30;;;0.70;1.00;;;;;;5108828;27;20258;-72
2024/02/29 00:12:02;;;;;;;24.40;17.92;;;0.70;1.00;;;;;;5089487;28;20627;-72
2024/02/29 00:14:29;;;;;;;27.27;17.98;;;0.80;1.00;;;;;;5094228;28;20236;-72
2024/02/29 00:16:58;;;;;;;21.88;17.08;;;0.80;1.00;;;;;;5089576;28;20280;-74
2024/02/29 00:19:25;;;;;;;29.55;19.40;;;0.80;1.00;;;;;;5092192;28;20926;-73
2024/02/29 00:21:53;;;;;;;23.88;19.02;;;0.80;1.00;;;;;;5093476;28;20267;-74
2024/02/29 00:24:20;;;;;;;26.70;18.55;;;0.70;1.00;;;;;;5091335;28;20247;-73
2024/02/29 00:26:51;;;;;;;28.25;18.05;;;0.70;1.00;;;;;;5091039;28;20328;-73
2024/02/29 00:29:18;;;;;;;25.73;17.63;;;0.60;1.00;;;;;;5100668;28;20315;-74
2024/02/29 00:31:45;;;;;;;26.48;19.65;;;0.60;1.00;;;;;;5109449;27;20235;-74
2024/02/29 00:34:13;;;;;;;27.42;17.90;;;0.60;1.00;;;;;;5088814;28;20314;-72
2024/02/29 00:36:41;;;;;;;25.40;17.48;;;0.60;1.00;;;;;;5092985;28;20235;-74
2024/02/29 00:39:09;;;;;;;26.88;18.42;;;0.60;1.00;;;;;;5091123;28;20236;-74
2024/02/29 00:41:36;;;;;;;29.10;18.45;;;0.60;1.00;;;;;;5093601;28;20256;-73
2024/02/29 00:44:06;;;;;;;30.05;18.67;;;0.60;1.00;;;;;;5091752;28;20332;-74
2024/02/29 00:46:33;;;;;;;26.08;18.20;;;0.60;1.00;;;;;;5100166;27;20244;-75
2024/02/29 00:49:00;;;;;;;26.08;18.40;;;0.60;1.00;;;;;;5095153;28;20338;-74
2024/02/29 00:51:26;;;;;;;25.33;17.67;;;0.60;1.00;;;;;;5093700;28;20267;-73
2024/02/29 00:53:53;;;;;;;26.17;17.75;;;0.60;1.00;;;;;;5094216;28;20339;-73
2024/02/29 00:56:21;;;;;;;28.20;19.90;;;0.60;1.00;;;;;;5095611;27;20235;-73
2024/02/29 00:58:48;;;;;;;29.02;19.02;;;0.60;1.00;;;;;;5100011;27;20240;-73
2024/02/29 01:01:15;;;;;;;26.95;18.52;;;0.60;1.00;;;;;;5093099;28;20785;-74
2024/02/29 01:03:42;;;;;;;28.60;17.50;;;0.50;1.00;;;;;;5084372;28;20238;-73
2024/02/29 01:06:09;;;;;;;30.88;18.92;;;0.60;1.00;;;;;;5094349;28;20244;-75
2024/02/29 01:08:35;;;;;;;28.42;18.67;;;0.50;1.00;;;;;;5103401;27;20247;-71
2024/02/29 01:11:03;;;;;;;29.17;20.17;;;0.60;1.00;;;;;;5090950;28;20678;-73
2024/02/29 01:13:32;;;;;;;30.52;20.70;;;0.60;1.00;;;;;;5108389;27;20461;-74
2024/02/29 01:15:59;;;;;;;27.90;19.13;;;0.60;1.00;;;;;;5094267;27;20236;-72
2024/02/29 01:18:27;;;;;;;30.15;18.77;;;0.50;1.00;;;;;;5095267;28;21015;-73
2024/02/29 01:20:54;;;;;;;30.92;20.38;;;0.50;1.00;;;;;;5094308;28;20698;-73
2024/02/29 01:23:21;;;;;;;31.55;19.77;;;0.50;1.00;;;;;;5098882;27;20244;-72
2024/02/29 01:25:48;;;;;;;26.70;19.52;;;0.50;1.00;;;;;;5094018;28;20298;-72
2024/02/29 01:28:15;;;;;;;28.55;19.60;;;0.50;1.00;;;;;;5090885;28;20248;-72
2024/02/29 01:30:43;;;;;;;34.35;20.58;;;0.50;1.00;;;;;;5092618;28;20380;-73
2024/02/29 01:33:10;;;;;;;30.08;19.90;;;0.60;1.00;;;;;;5091431;28;20322;-73
2024/02/29 01:35:38;;;;;;;29.17;20.33;;;0.60;1.00;;;;;;5098193;27;20757;-73
2024/02/29 01:38:05;;;;;;;29.17;20.98;;;0.50;1.00;;;;;;5093874;28;20765;-72
2024/02/29 01:40:32;;;;;;;31.45;20.30;;;0.60;1.00;;;;;;5090205;28;20238;-73
2024/02/29 01:42:59;;;;;;;29.23;20.13;;;0.60;1.00;;;;;;5091163;28;20315;-73
2024/02/29 01:45:26;;;;;;;31.27;19.95;;;0.60;1.00;;;;;;5091634;28;20240;-74
2024/02/29 01:47:54;;;;;;;31.58;21.10;;;0.60;1.00;;;;;;5089173;28;20311;-73
2024/02/29 01:50:21;;;;;;;27.88;19.27;;;0.60;1.00;;;;;;5103508;27;20239;-72
2024/02/29 01:52:49;;;;;;;27.58;17.50;;;0.60;1.00;;;;;;5090709;28;20341;-77
2024/02/29 01:55:16;;;;;;;27.13;19.30;;;0.60;1.00;;;;;;5091159;28;20365;-79
2024/02/29 01:57:43;;;;;;;27.55;18.67;;;0.60;1.00;;;;;;5091532;28;20243;-77
2024/02/29 02:00:11;;;;;;;33.90;20.35;;;0.50;1.00;;;;;;5092600;28;21060;-78
2024/02/29 02:02:38;;;;;;;26.25;18.60;;;0.50;1.00;;;;;;5088954;28;20691;-79
2024/02/29 02:05:08;;;;;;;30.30;19.90;;;0.50;1.00;;;;;;5108273;27;20224;-74
2024/02/29 02:07:35;;;;;;;29.15;20.05;;;0.40;1.00;;;;;;5103416;27;20227;-78
2024/02/29 02:10:03;;;;;;;28.30;19.95;;;0.40;1.00;;;;;;5090887;28;20623;-79
2024/02/29 02:12:30;;;;;;;29.83;20.05;;;0.40;1.00;;;;;;5092276;28;20246;-75
2024/02/29 02:14:57;;;;;;;27.45;18.20;;;0.40;1.00;;;;;;5093416;28;20835;-77
2024/02/29 02:17:23;;;;;;;34.63;21.33;;;0.40;1.00;;;;;;5096300;28;20235;-78
2024/02/29 02:19:52;;;;;;;27.02;18.23;;;0.40;1.00;;;;;;5097596;27;20255;-78
2024/02/29 02:22:21;;;;;;;35.90;20.67;;;0.40;1.00;;;;;;5106350;27;20236;-79
2024/02/29 02:24:48;;;;;;;30.85;20.20;;;0.40;1.00;;;;;;5095451;28;21125;-78
2024/02/29 02:27:15;;;;;;;28.70;19.55;;;0.40;1.00;;;;;;5094024;28;20240;-78
2024/02/29 02:29:42;;;;;;;29.15;19.75;;;0.40;1.00;;;;;;5093560;28;20289;-79
2024/02/29 02:32:10;;;;;;;29.42;20.27;;;0.40;1.00;;;;;;5094762;28;20335;-77
2024/02/29 02:34:37;;;;;;;25.92;19.27;;;0.40;1.00;;;;;;5096642;28;20327;-78
2024/02/29 02:37:04;;;;;;;28.58;20.02;;;0.30;1.00;;;;;;5094913;28;20267;-78
2024/02/29 02:39:32;;;;;;;31.40;20.20;;;0.30;1.00;;;;;;5095660;28;20319;-75
2024/02/29 02:41:59;;;;;;;29.20;20.17;;;0.30;1.00;;;;;;5092584;28;20243;-75
2024/02/29 02:44:27;;;;;;;35.83;21.08;;;0.30;1.00;;;;;;5096957;27;20318;-76
2024/02/29 02:46:54;;;;;;;33.03;21.60;;;0.30;1.00;;;;;;5104763;27;20235;-76
2024/02/29 02:49:21;;;;;;;33.60;20.60;;;0.30;1.00;;;;;;5117280;27;20231;-75
2024/02/29 02:51:48;;;;;;;31.65;21.60;;;0.20;1.00;;;;;;5096448;27;20240;-75
2024/02/29 02:54:15;;;;;;;35.95;21.45;;;0.20;1.00;;;;;;5095861;27;20292;-75
2024/02/29 02:56:43;;;;;;;35.17;20.60;;;0.20;1.00;;;;;;5099471;27;20259;-76
2024/02/29 02:59:10;;;;;;;32.90;20.50;;;0.20;1.00;;;;;;5095507;28;21025;-75
2024/02/29 03:01:37;;;;;;;32.78;21.20;;;0.10;1.00;;;;;;5091335;27;20783;-74
2024/02/29 03:04:06;;;;;;;35.20;23.73;;;0.10;1.00;;;;;;5098548;28;20311;-74
2024/02/29 03:06:33;;;;;;;35.72;21.85;;;0.00;1.00;;;;;;5093710;28;20228;-74
2024/02/29 03:09:00;;;;;;;34.85;21.33;;;0.00;1.00;;;;;;5096025;28;20291;-74
2024/02/29 03:11:27;;;;;;;37.80;22.90;;;0.00;1.00;;;;;;5092895;28;20236;-75
2024/02/29 03:13:56;;;;;;;34.88;21.38;;;0.00;1.00;;;;;;5093496;28;20364;-75
2024/02/29 03:16:23;;;;;;;36.00;22.48;;;0.00;1.00;;;;;;5092651;28;20232;-74
2024/02/29 03:18:50;;;;;;;32.50;21.30;;;0.10;1.00;;;;;;5091157;28;20232;-73
2024/02/29 03:21:17;;;;;;;31.27;19.85;;;0.10;1.00;;;;;;5090859;28;20334;-75
2024/02/29 03:23:45;;;;;;;34.30;21.40;;;0.10;1.00;;;;;;5095662;27;20271;-75
2024/02/29 03:26:12;;;;;;;36.60;22.60;;;0.10;1.00;;;;;;5094974;28;20251;-75
2024/02/29 03:28:40;;;;;;;35.92;21.38;;;0.00;1.00;;;;;;5092873;28;20243;-75
2024/02/29 03:31:14;;;;;;;31.55;21.75;;;0.10;1.00;;;;;;5094681;28;20266;-74
2024/02/29 03:33:43;;;;;;;36.95;23.15;;;0.00;1.00;;;;;;5092067;28;20750;-76
2024/02/29 03:36:10;;;;;;;33.33;22.02;;;0.00;1.00;;;;;;5088138;28;20346;-74
2024/02/29 03:38:38;;;;;;;36.97;23.23;;;0.00;1.00;;;;;;5094937;28;20779;-73
2024/02/29 03:41:06;;;;;;;36.03;21.88;;;0.00;1.00;;;;;;5095067;28;20247;-75
2024/02/29 03:43:34;;;;;;;36.42;21.60;;;-0.10;1.00;;;;;;5094137;28;20239;-75
2024/02/29 03:46:01;;;;;;;36.13;22.05;;;-0.10;1.00;;;;;;5098388;28;20238;-73
2024/02/29 03:48:29;;;;;;;35.20;21.88;;;-0.10;1.00;;;;;;5095984;28;20355;-75
2024/02/29 03:50:56;;;;;;;29.30;19.67;;;-0.10;1.00;;;;;;5094043;28;20318;-77
2024/02/29 03:53:23;;;;;;;32.03;21.40;;;-0.20;1.00;;;;;;5092568;28;20331;-74
2024/02/29 03:55:50;;;;;;;34.47;21.40;;;-0.10;1.00;;;;;;5095894;28;20228;-75
2024/02/29 03:58:17;;;;;;;35.10;22.38;;;-0.20;1.00;;;;;;5089438;28;20331;-75
2024/02/29 04:00:44;;;;;;;38.53;24.58;;;-0.30;1.00;;;;;;5087129;28;20350;-74
2024/02/29 04:03:11;;;;;;;47.88;27.17;;;-0.30;1.00;;;;;;5097272;27;20240;-75
2024/02/29 04:05:41;;;;;;;37.38;23.40;;;-0.40;1.00;;;;;;5096546;28;20345;-74
2024/02/29 04:08:12;;;;;;;41.40;23.92;;;-0.40;1.00;;;;;;5093016;28;20765;-73
2024/02/29 04:10:39;;;;;;;41.53;24.63;;;-0.40;1.00;;;;;;5093209;28;20306;-75
2024/02/29 04:13:06;;;;;;;41.50;23.08;;;-0.40;1.00;;;;;;5080604;28;20252;-72
2024/02/29 04:15:33;;;;;;;34.53;22.30;;;-0.40;1.00;;;;;;5097764;27;20315;-72
2024/02/29 04:18:00;;;;;;;40.75;22.75;;;-0.40;1.00;;;;;;5088695;28;20322;-72
2024/02/29 04:20:27;;;;;;;39.53;24.30;;;-0.30;1.00;;;;;;5091491;28;20267;-73
2024/02/29 04:22:56;;;;;;;40.80;23.75;;;-0.40;1.00;;;;;;5092899;28;20240;-72
2024/02/29 04:25:23;;;;;;;40.13;24.55;;;-0.40;1.00;;;;;;5092726;28;20232;-72
2024/02/29 04:27:50;;;;;;;38.00;23.83;;;-0.40;1.00;;;;;;5092522;28;20782;-72
2024/02/29 04:30:18;;;;;;;43.05;24.55;;;-0.40;1.00;;;;;;5093695;27;20242;-71
2024/02/29 04:32:45;;;;;;;44.78;26.30;;;-0.40;1.00;;;;;;5097221;27;21001;-71
2024/02/29 04:35:12;;;;;;;46.15;25.48;;;-0.40;1.00;;;;;;5101465;27;20236;-72
2024/02/29 04:37:39;;;;;;;37.40;22.13;;;-0.40;1.00;;;;;;5094416;28;20263;-72
2024/02/29 04:40:10;;;;;;;39.00;24.70;;;-0.40;1.00;;;;;;5090503;28;20244;-72
2024/02/29 04:42:37;;;;;;;41.08;23.48;;;-0.40;1.00;;;;;;5092688;28;20239;-74
2024/02/29 04:45:04;;;;;;;42.63;24.27;;;-0.50;1.00;;;;;;5094760;28;20232;-71
2024/02/29 04:47:31;;;;;;;49.72;26.63;;;-0.50;1.00;;;;;;5111527;27;20255;-72
2024/02/29 04:49:58;;;;;;;43.75;24.75;;;-0.50;1.00;;;;;;5112117;27;20239;-72
2024/02/29 04:52:25;;;;;;;40.35;23.88;;;-0.50;1.00;;;;;;5112756;27;20322;-73
2024/02/29 04:54:52;;;;;;;45.72;25.15;;;-0.50;1.00;;;;;;5103907;27;20243;-73
2024/02/29 04:57:21;;;;;;;44.15;25.50;;;-0.50;1.00;;;;;;5092461;28;20327;-71
2024/02/29 04:59:48;;;;;;;49.38;25.63;;;-0.50;1.00;;;;;;5106337;27;20235;-72
2024/02/29 05:02:15;;;;;;;49.30;27.80;;;-0.50;1.00;;;;;;5093845;27;20232;-72
2024/02/29 05:04:42;;;;;;;43.17;24.45;;;-0.50;1.00;;;;;;5093221;27;20358;-71
2024/02/29 05:07:10;;;;;;;50.72;27.45;;;-0.40;1.00;;;;;;5109906;27;20335;-73
2024/02/29 05:09:38;;;;;;;45.85;25.25;;;-0.40;1.00;;;;;;5113308;27;20231;-78
2024/02/29 05:12:05;;;;;;;44.03;24.73;;;-0.30;1.00;;;;;;5114497;27;20289;-71
2024/02/29 05:14:33;;;;;;;48.65;26.35;;;-0.40;1.00;;;;;;5108998;27;20319;-72
2024/02/29 05:17:00;;;;;;;42.47;26.52;;;-0.40;1.00;;;;;;5089166;28;20236;-73
2024/02/29 05:19:27;;;;;;;43.22;26.42;;;-0.40;1.00;;;;;;5099610;27;20364;-73
2024/02/29 05:21:55;;;;;;;42.25;25.00;;;-0.40;1.00;;;;;;5089042;28;20787;-75
2024/02/29 05:24:22;;;;;;;46.38;27.35;;;-0.40;1.00;;;;;;5079504;27;20232;-76
2024/02/29 05:26:49;;;;;;;46.05;26.20;;;-0.40;1.00;;;;;;5097039;27;20666;-75
2024/02/29 05:29:16;;;;;;;42.92;26.48;;;-0.40;1.00;;;;;;5090873;28;20326;-74
2024/02/29 05:31:56;;;;;;;41.65;26.67;;;-0.40;1.00;;;;;;5091238;28;20293;-76
2024/02/29 05:34:24;;;;;;;45.50;28.63;;;-0.30;1.00;;;;;;5104820;27;20292;-76
2024/02/29 05:36:51;;;;;;;45.25;25.55;;;-0.30;1.00;;;;;;5094543;28;20250;-76
2024/02/29 05:39:19;;;;;;;49.78;29.05;;;-0.20;1.00;;;;;;5110855;27;20668;-74
2024/02/29 05:41:46;;;;;;;50.90;29.42;;;-0.20;1.00;;;;;;5102296;27;20293;-77
2024/02/29 05:44:13;;;;;;;46.35;28.67;;;-0.20;1.00;;;;;;5087665;28;20241;-75
2024/02/29 05:46:40;;;;;;;50.28;29.50;;;-0.20;1.00;;;;;;5091816;28;20267;-75
2024/02/29 05:49:08;;;;;;;47.33;29.38;;;-0.10;1.00;;;;;;5094840;27;20331;-76
2024/02/29 05:51:35;;;;;;;48.30;27.85;;;0.00;1.00;;;;;;5099220;27;21457;-75
2024/02/29 05:54:03;;;;;;;50.05;28.25;;;-0.10;1.00;;;;;;5106233;27;20235;-75
2024/02/29 05:56:30;;;;;;;48.15;25.40;;;0.00;1.00;;;;;;5091065;27;20256;-74
2024/02/29 05:58:58;;;;;;;51.90;31.40;;;0.00;1.00;;;;;;5088474;27;20247;-76
2024/02/29 06:01:25;;;;;;;46.22;27.70;;;0.00;1.00;;;;;;5089354;28;20323;-75
2024/02/29 06:03:52;;;;;;;47.85;27.58;;;0.10;1.00;;;;;;5082281;28;20232;-77
2024/02/29 06:06:21;;;;;;;48.28;28.42;;;0.00;1.00;;;;;;5085533;28;20277;-75
2024/02/29 06:08:50;;;;;;;52.08;28.40;;;0.00;1.00;;;;;;5090125;28;20323;-75
2024/02/29 06:11:17;;;;;;;46.25;26.33;;;0.00;1.00;;;;;;5088515;28;20236;-76
2024/02/29 06:13:44;;;;;;;57.72;29.45;;;0.10;1.00;;;;;;5091069;28;20783;-75
2024/02/29 06:16:13;;;;;;;49.85;27.60;;;0.20;1.00;;;;;;5086257;28;20236;-75
2024/02/29 06:18:42;;;;;;;47.50;28.20;;;0.20;1.00;;;;;;5087445;28;20732;-75
2024/02/29 06:21:08;;;;;;;46.63;28.50;;;0.20;1.00;;;;;;5085704;28;20268;-75
2024/02/29 06:23:37;;;;;;;51.42;29.40;;;0.30;1.00;;;;;;5095143;27;20316;-75
2024/02/29 06:26:04;;;;;;;46.78;27.02;;;0.30;1.00;;;;;;5092539;28;20397;-75
2024/02/29 06:28:31;;;;;;;46.33;27.85;;;0.50;1.00;;;;;;5096310;27;20785;-75
2024/02/29 06:30:58;;;;;;;40.70;24.42;;;0.50;1.00;;;;;;5089899;27;20330;-76
2024/02/29 06:33:26;;;;;;;46.53;28.52;;;0.60;1.00;;;;;;5093455;27;20285;-77
2024/02/29 06:35:53;;;;;;;42.10;25.95;;;0.60;1.00;;;;;;5082476;28;20287;-75
2024/02/29 06:38:23;;;;;;;40.38;23.85;;;0.60;1.00;;;;;;5103764;27;20355;-76
2024/02/29 06:40:52;;;;;;;50.20;29.60;;;0.70;1.00;;;;;;5100171;27;20259;-77
2024/02/29 06:43:19;;;;;;;46.60;26.50;;;0.60;1.00;;;;;;5087411;28;20239;-77
2024/02/29 06:45:47;;;;;;;48.42;29.42;;;0.70;1.00;;;;;;5091422;28;20333;-77
2024/02/29 06:48:15;;;;;;;47.13;26.90;;;0.70;1.00;;;;;;5094697;28;21197;-75
2024/02/29 06:50:42;;;;;;;41.40;27.73;;;0.70;1.00;;;;;;5093571;28;20236;-75
2024/02/29 06:53:09;;;;;;;41.65;25.90;;;0.70;1.00;;;;;;5100835;27;20305;-75
2024/02/29 06:55:36;;;;;;;41.00;26.45;;;0.70;1.00;;;;;;5102466;27;20238;-76
2024/02/29 06:58:05;;;;;;;41.10;26.63;;;0.80;1.00;;;;;;5097011;27;20299;-76
2024/02/29 07:00:32;;;;;;;49.90;27.15;;;0.80;1.00;;;;;;5102092;27;20236;-76
2024/02/29 07:03:01;;;;;;;38.70;23.83;;;0.90;1.00;;;;;;5090914;28;20242;-75
2024/02/29 07:05:28;;;;;;;53.33;26.20;;;0.90;1.00;;;;;;5095479;28;20266;-76
2024/02/29 07:07:55;;;;;;;39.88;23.88;;;1.10;1.00;;;;;;5093491;28;20235;-76
2024/02/29 07:10:23;;;;;;;42.38;25.35;;;1.10;1.00;;;;;;5092450;28;20281;-80
2024/02/29 07:12:50;;;;;;;47.22;27.77;;;1.20;1.00;;;;;;5094606;28;20233;-75
2024/02/29 07:15:19;;;;;;;45.97;28.08;;;1.30;1.00;;;;;;5094321;27;20318;-76
2024/02/29 07:17:46;;;;;;;42.97;26.33;;;1.40;1.00;;;;;;5100662;27;20235;-75
2024/02/29 07:20:14;;;;;;;41.63;25.48;;;1.50;1.00;;;;;;5084827;28;20886;-75
2024/02/29 07:22:42;;;;;;;47.28;30.55;;;1.60;1.00;;;;;;5093920;28;20227;-77
2024/02/29 07:25:10;;;;;;;43.28;25.50;;;1.70;1.00;;;;;;5095870;28;20700;-75
2024/02/29 07:27:38;;;;;;;39.38;24.80;;;1.70;1.00;;;;;;5091748;28;20254;-78
2024/02/29 07:30:08;;;;;;;43.70;25.60;;;1.80;1.00;;;;;;5098207;27;20261;-78
2024/02/29 07:32:36;;;;;;;36.75;24.38;;;1.90;1.00;;;;;;5089239;28;20270;-77
2024/02/29 07:35:04;;;;;;;45.63;28.27;;;2.00;1.00;;;;;;5089671;28;20244;-76
2024/02/29 07:37:32;;;;;;;39.65;25.20;;;2.00;1.00;;;;;;5090374;28;20232;-78
2024/02/29 07:39:59;;;;;;;40.28;25.38;;;2.10;1.00;;;;;;5092680;28;20290;-78
2024/02/29 07:42:26;;;;;;;42.03;26.02;;;2.20;1.00;;;;;;5090819;28;20240;-74
2024/02/29 07:44:53;;;;;;;44.50;24.50;;;2.20;1.00;;;;;;5088636;27;20240;-72
2024/02/29 07:47:19;;;;;;;37.30;24.45;;;2.20;1.00;;;;;;5109138;27;20239;-72
2024/02/29 07:49:48;;;;;;;38.03;25.38;;;2.20;1.00;;;;;;5107504;27;20288;-72
2024/02/29 07:52:15;;;;;;;38.28;24.35;;;2.30;1.00;;;;;;5098940;27;20322;-72
2024/02/29 07:54:43;;;;;;;42.47;26.10;;;2.40;1.00;;;;;;5090786;27;20327;-73
2024/02/29 07:57:12;;;;;;;38.10;23.83;;;2.60;1.00;;;;;;5093815;28;20314;-71
2024/02/29 07:59:40;;;;;;;40.05;24.30;;;2.80;1.00;;;;;;5082163;28;20238;-71
2024/02/29 08:02:07;;;;;;;45.53;27.30;;;2.90;1.00;;;;;;5085795;28;20235;-72
2024/02/29 08:04:36;;;;;;;40.92;27.35;;;3.00;1.00;;;;;;5091820;28;20785;-72
2024/02/29 08:07:06;;;;;;;42.42;25.92;;;3.20;1.00;;;;;;5089925;28;21099;-71
2024/02/29 08:09:34;;;;;;;45.28;28.48;;;3.40;1.00;;;;;;5089174;28;20264;-71
2024/02/29 08:12:02;;;;;;;38.75;26.08;;;3.50;1.00;;;;;;5087554;28;20292;-73
2024/02/29 08:14:30;;;;;;;39.45;24.45;;;3.50;1.00;;;;;;5090105;28;20236;-73
2024/02/29 08:16:57;;;;;;;37.28;25.58;;;3.60;1.00;;;;;;5089241;28;20764;-73
2024/02/29 08:19:24;;;;;;;36.42;22.60;;;3.70;1.00;;;;;;5088816;28;20250;-72
2024/02/29 08:21:52;;;;;;;35.30;23.42;;;3.80;1.00;;;;;;5091523;28;20236;-72
2024/02/29 08:24:20;;;;;;;34.38;22.70;;;3.90;1.00;;;;;;5089159;28;20778;-72
2024/02/29 08:26:47;;;;;;;36.10;24.65;;;4.10;1.00;;;;;;5097612;27;20244;-71
2024/02/29 08:29:16;;;;;;;33.90;23.17;;;4.30;1.00;;;;;;5095285;27;20263;-73
2024/02/29 08:31:44;;;;;;;33.83;23.75;;;4.50;1.00;;;;;;5095373;27;20227;-74
2024/02/29 08:34:10;;;;;;;39.25;24.17;;;4.60;1.00;;;;;;5090152;27;21008;-72
2024/02/29 08:36:37;;;;;;;33.92;24.17;;;4.80;1.00;;;;;;5104635;27;20239;-80
2024/02/29 08:39:04;;;;;;;37.08;23.35;;;4.90;1.00;;;;;;5103816;27;20232;-73
2024/02/29 08:41:33;;;;;;;37.70;25.25;;;5.00;1.00;;;;;;5098779;27;20323;-73
2024/02/29 08:43:59;;;;;;;37.25;23.45;;;5.20;1.00;;;;;;5099011;27;20376;-73
2024/02/29 08:46:26;;;;;;;33.05;23.00;;;5.40;1.00;;;;;;5108154;27;20236;-73
2024/02/29 08:48:53;;;;;;;36.13;24.02;;;5.40;1.00;;;;;;5104425;27;21412;-73
2024/02/29 08:51:20;;;;;;;35.13;24.27;;;5.60;1.00;;;;;;5106291;27;20243;-73
2024/02/29 08:53:47;;;;;;;30.90;21.98;;;6.10;1.00;;;;;;5097927;27;21023;-73
2024/02/29 08:56:14;;;;;;;31.42;22.83;;;7.00;1.00;;;;;;5081198;28;26572;-74
2024/02/29 08:58:43;;;;;;;30.80;21.50;;;7.70;1.00;;;;;;5085460;28;20272;-77
2024/02/29 09:01:11;;;;;;;28.83;21.60;;;8.10;1.00;;;;;;5085864;28;20910;-76
2024/02/29 09:03:38;;;;;;;31.37;23.40;;;8.90;1.00;;;;;;5087795;28;20478;-71
2024/02/29 09:06:05;;;;;;;29.43;21.27;;;9.50;1.00;;;;;;5093144;27;20984;-72
2024/02/29 09:08:32;;;;;;;31.37;23.43;;;10.10;1.00;;;;;;5089778;28;20486;-73
2024/02/29 09:10:59;;;;;;;30.67;22.43;;;10.70;1.00;;;;;;5083117;28;20470;-75
2024/02/29 09:13:26;;;;;;;31.77;23.40;;;11.10;1.00;;;;;;5084504;28;20704;-73
2024/02/29 09:15:56;;;;;;;25.60;20.20;;;11.50;1.00;;;;;;5083559;28;20455;-73
2024/02/29 09:18:24;;;;;;;29.20;21.77;;;12.30;1.00;;;;;;5066579;28;20485;-76
2024/02/29 09:20:51;;;;;;;24.67;20.90;;;13.20;1.00;;;;;;5085107;28;20538;-74
2024/02/29 09:23:18;;;;;;;31.60;23.10;;;13.40;1.00;;;;;;5086769;28;21044;-73
2024/02/29 09:25:45;;;;;;;25.20;20.80;;;13.80;1.00;;;;;;5086203;28;20456;-73
2024/02/29 09:28:12;;;;;;;30.57;22.63;;;14.30;1.00;;;;;;5085116;28;20568;-74
2024/02/29 09:30:39;;;;;;;24.33;19.97;;;14.40;1.00;;;;;;5087441;28;22156;-73
2024/02/29 09:33:07;;;;;;;27.70;22.00;;;13.70;1.00;;;;;;5084476;28;20572;-74
2024/02/29 09:35:34;;;;;;;28.53;21.60;;;13.80;1.00;;;;;;5085424;28;21258;-74
2024/02/29 09:38:04;;;;;;;31.17;22.70;;;13.90;1.00;;;;;;5087054;28;20510;-77
2024/02/29 09:40:33;;;;;;;24.10;20.80;;;14.10;1.00;;;;;;5087086;28;20484;-78
2024/02/29 09:43:00;;;;;;;24.50;20.07;;;14.20;1.00;;;;;;5084307;28;20550;-76
2024/02/29 09:45:30;;;;;;;31.93;21.90;;;14.50;1.00;;;;;;5085363;28;20849;-75
2024/02/29 09:47:59;;;;;;;26.73;21.33;;;14.30;1.00;;;;;;5087751;28;20525;-76
2024/02/29 09:50:28;;;;;;;26.87;21.03;;;14.40;1.00;;;;;;5088556;27;21238;-75
2024/02/29 09:52:55;;;;;;;24.77;20.87;;;14.30;1.00;;;;;;5088483;27;20996;-76
2024/02/29 09:55:23;;;;;;;24.20;19.10;;;13.90;1.00;;;;;;5081879;28;20452;-76
2024/02/29 09:57:52;;;;;;;25.80;21.33;;;13.40;1.00;;;;;;5087988;28;20469;-76
2024/02/29 10:00:20;;;;;;;25.87;20.40;;;13.40;1.00;;;;;;5084964;28;20459;-76
2024/02/29 10:02:48;;;;;;;30.93;21.23;;;13.50;1.00;;;;;;5087653;28;20488;-77
2024/02/29 10:05:16;;;;;;;23.90;20.33;;;13.40;1.00;;;;;;5086887;28;21833;-73
2024/02/29 10:07:47;;;;;;;25.13;20.47;;;13.30;1.00;;;;;;5087815;28;20985;-73
2024/02/29 10:10:16;;;;;;;21.90;19.53;;;13.10;1.00;;;;;;5080286;28;21299;-73
2024/02/29 10:12:44;;;;;;;28.10;19.33;;;13.00;1.00;;;;;;5079811;28;20462;-74
2024/02/29 10:15:12;;;;;;;29.80;21.87;;;13.00;1.00;;;;;;5081860;28;20538;-73
2024/02/29 10:17:39;;;;;;;25.33;20.83;;;12.70;1.00;;;;;;5082201;28;20463;-74
2024/02/29 10:20:08;;;;;;;22.27;19.00;;;12.80;1.00;;;;;;5084146;28;20465;-76
2024/02/29 10:22:36;;;;;;;22.17;18.97;;;13.20;1.00;;;;;;5085752;28;20458;-72
2024/02/29 10:25:11;;;;;;;22.40;19.23;;;13.20;1.00;;;;;;5085651;28;20472;-77
2024/02/29 10:27:39;;;;;;;24.20;19.17;;;13.30;1.00;;;;;;5092145;28;20582;-73
2024/02/29 10:30:10;;;;;;;23.00;18.73;;;13.30;1.00;;;;;;5089469;28;21142;-76
2024/02/29 10:32:37;;;;;;;22.80;18.93;;;13.70;1.00;;;;;;5088267;28;20497;-73
2024/02/29 10:35:20;;;;;;;22.40;19.37;;;13.70;1.00;;;;;;5087775;28;20463;-75
2024/02/29 10:37:48;;;;;;;24.87;18.57;;;13.90;1.00;;;;;;5081076;28;20457;-73
2024/02/29 10:40:17;;;;;;;20.97;18.27;;;14.20;1.00;;;;;;5088747;28;20452;-73
2024/02/29 10:42:44;;;;;;;25.00;20.00;;;13.70;1.00;;;;;;5089787;28;20979;-75
2024/02/29 10:45:15;;;;;;;22.80;18.43;;;13.80;1.00;;;;;;5088936;28;20522;-75
2024/02/29 10:47:46;;;;;;;23.77;19.13;;;13.40;1.00;;;;;;5092608;28;20436;-75
2024/02/29 10:50:20;;;;;;;21.90;19.27;;;12.90;1.00;;;;;;5089556;28;21682;-74
2024/02/29 10:52:52;;;;;;;20.60;17.73;;;13.50;1.00;;;;;;5089242;28;20493;-76
2024/02/29 10:55:25;;;;;;;20.20;18.10;;;13.90;1.00;;;;;;5098000;28;20466;-75
2024/02/29 10:58:03;;;;;;;23.47;18.60;;;13.90;1.00;;;;;;5111140;27;20558;-74
2024/02/29 11:00:32;;;;;;;21.23;18.20;;;14.20;1.00;;;;;;5095647;27;20484;-75
2024/02/29 11:03:00;;;;;;;21.57;19.30;;;14.10;1.00;;;;;;5100099;27;20468;-75
2024/02/29 11:05:27;;;;;;;23.97;18.93;;;14.10;1.00;;;;;;5092761;28;20456;-73
2024/02/29 11:07:55;;;;;;;20.33;18.13;;;13.90;1.00;;;;;;5083862;27;20421;-74
2024/02/29 11:10:24;;;;;;;20.20;17.43;;;14.00;1.00;;;;;;5100651;27;20561;-74
2024/02/29 11:12:58;;;;;;;25.30;18.57;;;14.70;1.00;;;;;;5090710;28;21089;-72
2024/02/29 11:15:26;;;;;;;22.53;19.30;;;15.80;1.00;;;;;;5092006;28;20990;-71
2024/02/29 11:17:53;;;;;;;20.73;18.17;;;15.60;1.00;;;;;;5109391;27;20979;-74
2024/02/29 11:20:21;;;;;;;21.17;18.03;;;15.70;1.00;;;;;;5089838;28;20454;-73
2024/02/29 11:22:49;;;;;;;21.17;18.87;;;16.40;1.00;;;;;;5087089;28;21051;-74
2024/02/29 11:25:24;;;;;;;21.37;19.07;;;17.00;1.00;;;;;;5087753;27;20540;-73
2024/02/29 11:27:52;;;;;;;22.27;18.67;;;16.80;1.00;;;;;;5091408;28;20532;-72
2024/02/29 11:30:20;;;;;;;19.40;17.30;;;16.30;1.00;;;;;;5089046;27;20524;-73
2024/02/29 11:32:48;;;;;;;21.90;19.63;;;16.40;1.00;;;;;;5079304;27;20473;-73
2024/02/29 11:35:16;;;;;;;20.97;18.60;;;16.60;1.00;;;;;;5113878;27;20910;-77
2024/02/29 11:37:45;;;;;;;21.57;19.20;;;17.90;1.00;;;;;;5097015;27;20496;-75
2024/02/29 11:40:15;;;;;;;20.63;18.47;;;19.80;1.00;;;;;;5088742;28;20531;-75
2024/02/29 11:42:44;;;;;;;21.13;18.03;;;21.00;1.00;;;;;;5099850;27;21989;-73
2024/02/29 11:45:21;;;;;;;21.67;19.30;;;20.90;1.00;;;;;;5083717;27;20474;-76
2024/02/29 11:47:50;;;;;;;19.97;18.00;;;21.60;1.00;;;;;;5091227;28;20515;-74
2024/02/29 11:50:18;;;;;;;23.10;20.80;;;22.00;1.00;;;;;;5092433;27;20457;-75
2024/02/29 11:52:46;;;;;;;21.37;19.07;;;20.40;1.00;;;;;;5111063;27;20458;-76
2024/02/29 11:55:15;;;;;;;21.80;18.80;;;19.90;1.00;;;;;;5107248;27;21376;-73
2024/02/29 11:57:45;;;;;;;20.60;18.37;;;18.70;1.00;;;;;;5091426;28;20483;-73
2024/02/29 12:00:13;;;;;;;22.90;20.07;;;18.00;1.00;;;;;;5088712;28;20571;-73
2024/02/29 12:02:43;;;;;;;20.50;18.40;;;17.60;1.00;;;;;;5087128;28;20468;-76
2024/02/29 12:05:10;;;;;;;23.67;20.53;;;18.50;1.00;;;;;;5090558;28;20457;-72
2024/02/29 12:07:38;;;;;;;22.30;19.90;;;19.90;1.00;;;;;;5091221;28;20894;-73
2024/02/29 12:10:07;;;;;;;19.80;17.73;;;20.10;1.00;;;;;;5088172;28;20994;-73
2024/02/29 12:12:34;;;;;;;22.77;20.27;;;20.70;1.00;;;;;;5092803;28;20464;-73
2024/02/29 12:15:05;;;;;;;22.00;19.03;;;21.50;1.00;;;;;;5083215;28;20461;-77
2024/02/29 12:17:33;;;;;;;21.40;19.20;;;22.80;1.00;;;;;;5087045;28;20462;-73
2024/02/29 12:20:01;;;;;;;24.13;21.53;;;22.90;1.00;;;;;;5086979;28;20463;-74
2024/02/29 12:22:28;;;;;;;19.93;17.93;;;22.90;1.00;;;;;;5088378;28;20575;-78
2024/02/29 12:25:02;;;;;;;20.33;18.10;;;22.90;1.00;;;;;;5088112;28;20485;-79
2024/02/29 12:27:30;;;;;;;21.40;19.30;;;22.80;1.00;;;;;;5092633;28;20509;-82
2024/02/29 12:29:57;;;;;;;20.70;18.73;;;22.80;1.00;;;;;;5095328;28;20468;-78
2024/02/29 12:32:26;;;;;;;20.67;18.60;;;23.70;1.00;;;;;;5091676;28;20493;-79
2024/02/29 12:34:54;;;;;;;19.47;17.50;;;24.30;1.00;;;;;;5091766;28;20461;-80
2024/02/29 12:37:21;;;;;;;19.43;17.40;;;25.10;1.00;;;;;;5105719;27;20543;-79
2024/02/29 12:39:54;;;;;;;19.90;17.90;;;25.50;1.00;;;;;;5096549;28;20447;-85
2024/02/29 12:42:21;;;;;;;20.20;18.10;;;25.90;1.00;;;;;;5095007;28;20448;-83
2024/02/29 12:44:51;;;;;;;19.53;17.67;;;26.30;1.00;;;;;;5095850;28;20485;-82
2024/02/29 12:47:19;;;;;;;20.10;18.20;;;26.40;1.00;;;;;;5097383;28;20563;-84